Werte bis 5 Uhr SommerzeitDiagramme Butzbach: Tagesdaten MonatsdatenCSV-Datei: Butzbach21.csv

Wetterdaten 2021 Station: Butzbach
Temperaturen in °C relative Nieder- Global- Wind Wind Wind- Sonnen-
Datum Boden Boden Luft Luft Luft Luft Feuchte schlag strahlung max richtung schein
20 cm 5 cm 20 cm 2 m 2 m max 2 m min % mm W/m2*d m/s m/s ° h

06.05.2021 9,4 8,7 1,6 4,2 5,6 2,9 81 0,0 0 1,2 5,1 --- ---
05.05.2021 9,3 8,8 5,7 7,0 14,7 1,6 75 2,8 5363 2,6 14,6 --- 12,3
04.05.2021 9,6 9,2 7,8 9,3 13,5 4,8 70 0,4 2036 2,7 14,5 --- 9,3
03.05.2021 9,7 9,3 6,6 7,7 14,5 -1,3 62 0,0 4817 1,5 7,8 --- 12,1
02.05.2021 10,2 9,9 7,7 8,1 13,3 1,8 61 0,0 3828 2,7 9,3 --- 12,6
01.05.2021 10,3 10,2 9,2 9,3 14,1 2,4 68 0,0 3818 1,5 6,5 --- 12,5
30.04.2021 10,5 10,1 6,7 7,0 11,6 1,0 79 0,0 2802 0,9 7,1 --- 8,9
29.04.2021 11,1 11,7 10,5 11,1 19,2 3,2 75 4,6 4834 2,4 14,7 --- 11,4
28.04.2021 10,4 10,9 11,1 11,5 21,4 0,8 58 10,2 6208 1,6 11,5 --- 11,7
27.04.2021 9,9 10,1 8,6 8,8 16,5 -0,7 49 0,0 6911 1,6 5,7 --- 13,0
26.04.2021 9,9 10,0 7,2 7,6 13,8 -0,2 50 0,0 7063 2,0 7,0 --- 13,0
25.04.2021 9,9 10,0 7,5 7,4 12,4 2,7 59 0,0 6880 3,1 8,8 --- 12,9
24.04.2021 9,8 10,0 9,1 9,2 14,9 3,7 60 0,0 6397 2,9 8,5 --- 12,4
23.04.2021 9,6 9,7 7,3 7,9 15,0 0,4 64 0,0 6752 1,8 6,6 --- 13,0
22.04.2021 9,5 9,8 7,9 7,8 14,3 2,4 60 0,0 6487 2,4 7,3 --- 12,3
21.04.2021 9,5 9,9 9,3 10,3 16,7 2,5 75 0,0 4137 1,9 10,0 --- 12,1
20.04.2021 8,7 9,4 9,5 9,9 18,1 1,0 73 0,0 6272 1,2 5,2 --- 12,2
19.04.2021 8,1 8,6 8,6 8,7 13,8 4,3 84 1,5 3733 1,7 7,4 --- 10,8
18.04.2021 7,3 7,4 8,3 8,3 12,6 5,4 80 11,6 2561 1,3 4,8 --- 7,8
17.04.2021 7,0 6,7 6,2 6,5 9,7 2,7 63 0,0 2616 2,3 7,5 --- 9,9
16.04.2021 6,8 6,4 5,1 5,1 8,4 0,8 68 0,0 3103 1,9 8,8 --- 10,0
15.04.2021 6,8 6,2 3,6 3,9 9,3 0,3 72 0,1 3916 2,6 9,1 --- 11,7
14.04.2021 6,8 6,2 2,6 3,1 8,6 -3,1 72 0,3 4624 1,8 7,9 --- 11,6
13.04.2021 7,1 6,4 2,8 3,3 10,2 -2,5 73 0,1 4486 1,8 7,5 --- 11,6
12.04.2021 7,4 7,0 4,2 4,2 11,2 -0,5 75 0,0 4502 2,7 12,1 --- 11,5
11.04.2021 7,6 7,7 7,3 7,6 15,6 3,0 91 9,2 1602 1,7 8,5 --- 4,1
10.04.2021 7,2 7,3 7,9 8,0 11,4 6,2 93 11,4 894 1,0 5,4 --- 1,2
09.04.2021 6,1 5,9 6,5 7,3 15,9 -2,1 59 0,0 4527 1,4 8,2 --- 10,6
08.04.2021 5,8 5,0 2,8 3,1 8,5 -0,4 69 0,0 3182 2,2 7,1 --- 11,6
07.04.2021 6,1 4,9 1,4 1,6 9,5 -1,1 82 0,7 3083 3,9 13,6 --- 10,8
06.04.2021 6,5 5,3 1,9 2,4 10,6 -0,7 76 0,0 4643 4,7 14,0 --- 10,6
05.04.2021 7,7 6,5 1,7 2,4 6,7 -1,0 82 2,3 1852 2,6 15,7 --- 6,4
04.04.2021 8,4 7,8 4,5 5,5 10,8 -0,1 69 0,0 3980 1,5 7,6 --- 10,3
03.04.2021 8,9 8,7 6,7 6,8 11,9 2,4 59 0,0 5249 2,8 8,8 --- 11,2
02.04.2021 9,6 9,6 8,1 8,0 13,6 5,5 64 0,0 3715 3,0 9,3 --- 8,4
01.04.2021 9,4 10,2 13,0 14,6 26,4 6,1 59 0,0 4580 2,1 8,3 --- 11,0
31.03.2021 8,8 9,6 11,6 13,8 24,6 3,2 54 0,0 5060 1,1 6,7 --- 11,0
30.03.2021 8,2 8,9 10,5 12,3 22,5 2,5 56 0,0 5190 1,0 5,2 --- 11,0
29.03.2021 7,4 8,0 10,9 12,5 21,9 3,2 55 0,0 5023 1,4 8,1 --- 10,9
28.03.2021 6,7 6,5 7,6 8,3 15,4 1,1 68 0,0 3375 1,5 8,4 --- 9,2
27.03.2021 7,3 7,1 6,0 6,7 12,4 1,9 75 3,0 3288 3,3 16,3 --- 10,9
26.03.2021 7,0 7,6 10,0 10,5 16,5 5,4 72 0,0 3599 1,4 8,7 --- 10,6
25.03.2021 6,1 6,3 7,1 8,0 16,0 -0,3 75 0,0 3665 1,1 6,0 --- 9,9
24.03.2021 5,5 5,4 5,3 6,0 15,3 -2,3 77 0,1 4609 1,2 7,2 --- 11,0
23.03.2021 5,4 5,3 5,3 5,8 9,7 0,4 75 0,0 1982 1,5 8,6 --- 9,0
22.03.2021 5,1 4,8 5,2 5,2 7,4 3,1 75 0,0 1465 2,5 8,1 --- 7,8
21.03.2021 5,0 4,8 5,6 5,8 11,2 3,2 67 0,0 3075 3,3 11,8 --- 9,7
20.03.2021 4,4 3,9 2,6 2,2 5,8 -1,3 60 0,0 3984 1,7 7,6 --- 10,0
19.03.2021 4,7 4,0 1,8 2,0 6,4 0,2 83 2,3 2425 3,0 10,5 --- 9,0
18.03.2021 4,7 3,9 2,2 2,4 10,2 -2,5 78 2,2 3060 1,5 8,2 --- 8,9
17.03.2021 5,2 4,6 3,0 3,3 5,5 -1,1 79 0,4 1580 2,4 8,1 --- 7,2
16.03.2021 5,3 4,8 5,0 5,2 10,7 3,1 76 0,3 2452 3,5 10,7 --- 8,6
15.03.2021 5,2 4,8 4,7 5,0 12,5 0,9 83 2,5 2781 3,1 11,3 --- 8,7
14.03.2021 5,2 4,7 4,2 4,6 8,7 2,2 80 1,3 1988 2,9 12,2 --- 8,1
13.03.2021 5,4 5,2 6,0 6,6 10,0 4,6 78 2,5 1629 4,1 15,6 --- 6,8
12.03.2021 5,3 5,1 6,7 7,0 13,4 3,9 69 0,2 2358 4,5 13,9 --- 7,4
11.03.2021 5,0 5,1 7,7 8,3 13,1 5,2 78 5,2 1063 4,1 18,3 --- 5,5
10.03.2021 4,3 4,2 5,9 6,1 9,1 3,0 78 0,0 1550 1,8 7,2 --- 6,9
09.03.2021 3,9 3,3 2,6 2,8 5,8 -0,7 88 0,4 1172 1,0 6,2 --- 5,3
08.03.2021 3,8 2,8 0,7 1,0 5,6 -3,5 84 0,0 1585 0,7 5,0 --- 6,3
07.03.2021 4,1 3,2 0,7 1,3 7,7 -5,4 69 0,0 3659 1,1 8,4 --- 9,7
06.03.2021 4,6 3,6 0,5 1,0 6,7 -4,5 67 0,0 3483 1,2 4,9 --- 9,5
05.03.2021 5,6 5,2 2,7 3,0 5,5 0,4 75 0,9 1816 2,7 9,8 --- 8,2
04.03.2021 5,4 5,4 6,2 6,5 12,4 2,4 88 4,0 1823 1,5 7,7 --- 7,8
03.03.2021 5,0 4,7 4,0 5,1 13,2 -0,4 87 0,1 2620 0,5 3,1 --- 8,0
02.03.2021 4,9 4,7 4,3 5,1 13,7 -1,7 82 0,2 3189 1,0 4,2 --- 9,1
01.03.2021 5,0 4,7 4,4 4,8 10,0 -0,1 87 0,1 2836 2,3 6,2 --- 8,1
28.02.2021 4,9 4,9 5,6 5,9 11,0 1,4 73 0,0 3069 1,9 5,5 --- 9,0
27.02.2021 4,8 4,3 3,7 4,1 7,4 -0,8 83 0,1 2628 2,3 8,2 --- 8,9
26.02.2021 5,5 5,1 4,2 5,4 9,0 2,8 89 3,4 762 1,6 9,1 --- 4,1
25.02.2021 5,4 5,8 7,8 9,4 17,1 3,0 81 0,0 2617 0,9 5,0 --- 8,4
24.02.2021 4,9 5,4 8,5 10,0 17,1 3,7 85 0,0 2427 1,0 6,1 --- 7,6
23.02.2021 3,9 4,3 7,6 8,3 17,6 1,9 86 0,0 2376 1,1 5,2 --- 8,0
22.02.2021 3,4 3,3 3,7 5,0 10,0 0,1 89 0,1 2167 0,9 5,5 --- 8,0
21.02.2021 2,9 3,2 6,0 7,5 15,9 0,7 81 0,0 2537 1,1 5,7 --- 8,3
20.02.2021 1,9 2,1 5,5 6,7 15,2 0,8 87 0,0 2179 0,9 5,0 --- 7,4
19.02.2021 0,9 0,7 4,7 5,6 10,7 1,5 85 0,8 2188 1,6 14,7 --- 7,6
18.02.2021 0,5 -0,6 3,8 4,9 10,2 -0,1 88 0,2 1551 1,0 8,5 --- 6,2
17.02.2021 0,5 -0,7 6,0 7,1 14,2 1,8 84 3,3 1683 1,8 8,9 --- 6,9
16.02.2021 0,5 -0,7 2,2 2,6 8,1 -0,3 94 2,3 1596 0,7 4,3 --- 6,9
15.02.2021 0,5 -0,9 -2,4 -2,1 0,2 -5,7 77 0,1 782 1,2 6,0 --- 3,5
14.02.2021 0,6 -0,9 -6,0 -5,5 1,3 -12,4 75 0,2 2524 0,7 3,7 --- 7,8
13.02.2021 0,9 -0,6 -6,7 -6,4 -1,1 -11,7 75 0,4 2300 2,1 6,1 --- 7,4
12.02.2021 1,1 -0,3 -6,4 -6,3 -2,6 -9,3 78 0,0 1925 2,7 8,3 --- 6,3
11.02.2021 1,3 -0,2 -4,4 -4,4 -2,0 -6,3 81 0,0 1589 1,8 5,8 --- 6,2
10.02.2021 1,7 0,1 -8,7 -8,8 -4,6 -12,5 82 0,0 1929 3,5 9,4 --- 6,7
09.02.2021 2,2 0,6 -8,8 -9,1 -7,3 -11,0 81 0,0 1338 2,3 6,0 --- 6,6
08.02.2021 3,0 1,3 -6,3 -6,6 -5,3 -8,3 87 0,0 817 3,1 7,1 --- 3,0
07.02.2021 4,1 2,7 -1,6 -1,7 0,8 -5,5 96 3,0 205 3,3 6,9 --- ---
06.02.2021 4,9 4,4 3,1 3,3 5,5 0,5 98 13,2 161 2,4 6,8 --- ---
05.02.2021 4,9 4,2 3,7 4,0 5,8 1,6 99 8,5 282 0,2 2,5 --- ---
04.02.2021 5,2 5,4 6,0 6,7 11,5 1,7 81 1,7 1757 2,1 13,9 --- 4,9
03.02.2021 4,3 4,4 7,7 8,5 12,2 5,4 94 11,6 384 1,4 13,3 --- 0,5
02.02.2021 3,5 3,2 5,0 5,4 9,3 2,8 98 6,3 474 0,7 6,1 --- 0,1
01.02.2021 3,1 2,2 1,4 1,3 2,9 -0,1 100 6,6 382 0,1 1,2 --- 0,2
31.01.2021 3,5 2,3 -0,9 -0,7 0,7 -2,5 88 1,4 805 1,8 6,3 --- 4,4
30.01.2021 4,2 3,8 2,1 2,4 7,6 -0,3 94 10,8 424 2,4 10,6 --- 0,4
29.01.2021 3,6 3,7 6,2 6,8 14,0 3,2 90 27,0 825 2,5 12,9 --- 3,1
28.01.2021 2,7 2,1 2,9 3,0 5,7 0,7 99 24,3 319 0,7 6,2 --- ---
27.01.2021 2,6 1,5 0,1 0,5 2,8 -1,2 96 0,4 578 1,0 7,1 --- 3,0
26.01.2021 2,9 1,8 1,0 1,7 6,3 -1,1 89 0,7 1089 3,1 12,1 --- 4,7
25.01.2021 3,1 2,0 -1,2 -0,6 0,9 -3,0 95 0,8 812 0,7 3,9 --- 4,6
24.01.2021 3,7 2,7 0,4 0,9 4,4 -1,3 95 5,6 880 3,1 12,2 --- 3,8
23.01.2021 4,0 3,3 2,1 2,4 4,9 -0,7 96 0,4 644 1,0 5,2 --- 2,0
22.01.2021 4,2 4,2 4,6 5,0 9,4 1,3 93 4,8 471 2,0 12,4 --- 1,4
21.01.2021 3,3 3,1 6,4 7,1 9,3 3,8 77 1,8 625 3,0 11,8 --- 3,1
20.01.2021 2,8 2,1 2,4 3,6 7,4 -0,7 84 0,0 745 1,2 7,8 --- 3,5
19.01.2021 2,6 2,0 2,6 3,1 5,0 0,8 90 4,4 368 1,7 8,6 --- ---
18.01.2021 2,1 1,4 2,6 3,1 5,3 -0,2 89 0,5 828 2,1 7,3 --- 3,8
17.01.2021 1,9 0,7 -1,4 -1,6 -0,1 -2,9 97 1,4 414 0,3 2,2 --- 0,3
16.01.2021 2,0 0,8 -1,3 -1,2 -0,1 -2,5 76 0,0 442 1,4 5,8 --- ---
15.01.2021 2,2 0,9 -0,5 -0,1 1,0 -1,7 83 0,0 428 2,2 5,8 --- ---
14.01.2021 2,5 1,4 0,3 0,8 2,8 -1,0 80 0,0 643 2,0 7,9 --- 3,2
13.01.2021 2,4 1,3 1,3 1,9 5,1 0,3 84 0,1 726 2,6 9,1 --- 3,8
12.01.2021 2,2 1,0 1,9 2,3 6,3 -0,5 91 5,5 630 2,9 10,7 --- 2,8
11.01.2021 2,4 0,8 -2,6 -2,2 2,8 -5,8 91 0,0 1035 1,0 6,0 --- 4,8
10.01.2021 2,8 1,6 -1,4 -1,0 2,9 -4,4 92 0,0 990 0,5 2,6 --- 5,0
09.01.2021 3,0 1,8 -0,1 0,3 1,6 -1,3 87 0,0 516 1,5 6,4 --- 1,5
08.01.2021 3,2 2,1 0,9 1,2 2,1 0,4 91 1,4 585 2,7 7,2 --- 2,1
07.01.2021 3,3 2,2 0,8 1,0 2,6 0,3 90 0,1 462 1,4 6,7 --- 2,1
06.01.2021 3,3 2,3 1,5 1,7 3,0 0,5 94 2,8 393 2,2 5,8 --- 0,7
05.01.2021 3,3 2,2 1,0 1,2 1,8 0,5 95 2,8 198 2,7 6,5 --- ---
04.01.2021 3,4 2,2 0,6 0,8 1,3 0,1 96 1,4 110 1,8 4,5 --- ---
03.01.2021 3,6 2,3 0,9 1,3 2,4 0,5 89 1,4 200 2,7 7,4 --- ---
02.01.2021 3,7 2,6 0,7 1,0 2,7 -1,0 94 0,0 470 0,9 4,8 --- ---
01.01.2021 3,8 2,7 1,0 1,1 2,3 0,1 98 4,0 299 0,2 2,8 --- ---

Mittelwerte (Temperaturen, Strahlung, rel. Feuchte, Wind), Summe (Regen) für 2021
5,2 4,7 3,8 4,3 80 247 2.392 1,9

Landesbetrieb Landwirtschaft Hessen 2009

      Werte bis 5 Uhr SommerzeitCSV-Datei: Butzbach21.csvDiagramm: Butzbach